Pine Canyon, Utah
Current Conditions -  °F | °C
As of 11:53 PM on Tuesday 21 Oct 2014 (Local Time) from KSLC Reporting Station
Few Clouds Few Clouds  
Wind Chill: 44°   Ceiling: Unl
Heat Index: 46°   Visibility: 10mi
Dew Point: 36°   Wind: 5mph
Humidity: 68%   Direction: 270°W
Pressure: 30.09"   Gusts: NA
Location:  40.5393°N, 112.353°W
Report Text: KSLC 220553Z 27004KT 10SM FEW095 FEW170 08/02 A3009 RMK AO2 SLP164 T00780022 10150 20067 53010
Loading
Personal Weather Stations






























Interactive Weather Map New forecast layout! Learn more

10-Day Weather Forecast

Advertisements
Track Severe Weather on mobile